Time;durP1;ratioP1;P1;durP2;ratioP2;P2;SDS_P1;SDS_P2;PMS_P1;PMS_P2;Temp;Humidity;BMP_temperature;BMP_pressure;BME280_temperature;BME280_humidity;BME280_pressure;Samples;Min_cycle;Max_cycle;Signal;HPM_P1;HPM_P2
2021/03/16 00:00:43;;;;;;;16.35;2.85;;;;;;;7.18;66.28;100579.41;4996326;28;20061;-77
2021/03/16 00:03:09;;;;;;;12.57;2.83;;;;;;;7.23;65.80;100581.31;4997966;28;20069;-77
2021/03/16 00:05:37;;;;;;;13.48;2.90;;;;;;;7.26;64.72;100589.00;4996691;28;20420;-77
2021/03/16 00:08:04;;;;;;;13.55;2.58;;;;;;;7.27;65.27;100585.16;4996911;28;20077;-77
2021/03/16 00:10:31;;;;;;;15.30;3.17;;;;;;;7.27;64.79;100596.22;4997051;28;20081;-77
2021/03/16 00:12:58;;;;;;;14.38;2.80;;;;;;;7.28;65.04;100595.91;4996099;28;20058;-77
2021/03/16 00:15:29;;;;;;;14.90;3.50;;;;;;;7.31;64.57;100603.66;5001602;28;20054;-76
2021/03/16 00:18:02;;;;;;;15.27;3.63;;;;;;;7.29;64.63;100592.03;5006968;28;20055;-77
2021/03/16 00:20:38;;;;;;;12.48;3.08;;;;;;;7.31;64.45;100605.63;5006786;28;20068;-77
2021/03/16 00:23:16;;;;;;;13.07;3.65;;;;;;;7.29;64.04;100605.91;5004383;28;20058;-77
2021/03/16 00:25:52;;;;;;;15.05;3.15;;;;;;;7.31;64.11;100609.22;5001802;28;20077;-77
2021/03/16 00:28:25;;;;;;;19.30;3.95;;;;;;;7.34;63.95;100620.81;5002182;28;20066;-77
2021/03/16 00:30:56;;;;;;;11.60;2.42;;;;;;;7.37;63.87;100606.38;5000734;28;20058;-77
2021/03/16 00:33:37;;;;;;;17.17;3.47;;;;;;;7.38;63.94;100619.13;5003163;28;20069;-77
2021/03/16 00:36:09;;;;;;;11.68;2.65;;;;;;;7.35;64.87;100617.78;5001358;28;20058;-77
2021/03/16 00:38:42;;;;;;;15.82;2.88;;;;;;;7.42;64.25;100617.44;5001036;28;20073;-77
2021/03/16 00:41:11;;;;;;;9.55;2.65;;;;;;;7.42;64.23;100607.19;5000206;28;20065;-77
2021/03/16 00:43:43;;;;;;;15.57;3.13;;;;;;;7.40;64.02;100619.69;5000376;28;20054;-77
2021/03/16 00:46:21;;;;;;;13.73;2.30;;;;;;;7.39;63.24;100627.16;5001584;28;20059;-77
2021/03/16 00:48:56;;;;;;;13.98;2.85;;;;;;;7.42;62.62;100625.75;5002866;28;20062;-77
2021/03/16 00:51:24;;;;;;;8.63;2.70;;;;;;;7.40;61.82;100622.44;5002800;28;20062;-77
2021/03/16 00:53:58;;;;;;;17.42;3.17;;;;;;;7.40;62.53;100637.13;5002451;28;20058;-76
2021/03/16 00:56:30;;;;;;;13.80;2.63;;;;;;;7.41;62.14;100626.84;5003822;28;20504;-77
2021/03/16 00:59:07;;;;;;;11.13;3.65;;;;;;;7.42;62.04;100634.88;5003069;28;20067;-76
2021/03/16 01:01:38;;;;;;;11.98;2.45;;;;;;;7.43;61.56;100635.72;4998583;28;20065;-76
2021/03/16 01:04:17;;;;;;;16.95;3.13;;;;;;;7.42;60.96;100634.88;5000871;28;20054;-76
2021/03/16 01:06:55;;;;;;;11.00;3.00;;;;;;;7.40;61.52;100644.63;5002582;28;20064;-77
2021/03/16 01:09:35;;;;;;;10.27;2.47;;;;;;;7.40;59.98;100641.84;5001980;28;20069;-77
2021/03/16 01:12:05;;;;;;;10.48;2.17;;;;;;;7.38;60.56;100641.31;5003393;28;20062;-76
2021/03/16 01:14:38;;;;;;;11.48;2.65;;;;;;;7.40;60.32;100647.38;5004529;28;20065;-77
2021/03/16 01:17:17;;;;;;;17.98;3.25;;;;;;;7.38;60.69;100655.16;5004767;28;20062;-76
2021/03/16 01:19:46;;;;;;;13.07;2.30;;;;;;;7.38;60.84;100660.69;5004644;28;20058;-77
2021/03/16 01:22:14;;;;;;;15.73;3.30;;;;;;;7.42;61.08;100662.59;5006405;28;20062;-76
2021/03/16 01:24:42;;;;;;;11.75;3.00;;;;;;;7.45;60.65;100666.72;5006488;28;20065;-76
2021/03/16 01:27:14;;;;;;;16.88;3.63;;;;;;;7.45;61.55;100666.72;5006678;28;20066;-76
2021/03/16 01:29:46;;;;;;;16.75;3.53;;;;;;;7.48;61.80;100663.41;5006745;28;20061;-76
2021/03/16 01:32:17;;;;;;;11.48;2.90;;;;;;;7.50;62.18;100663.94;5007384;28;20058;-76
2021/03/16 01:34:48;;;;;;;17.35;2.63;;;;;;;7.50;62.27;100653.66;5008100;28;20055;-77
2021/03/16 01:37:22;;;;;;;11.50;3.20;;;;;;;7.55;61.92;100666.66;5006250;28;20066;-77
2021/03/16 01:39:52;;;;;;;14.75;2.95;;;;;;;7.58;62.65;100655.00;5006810;28;20058;-76
2021/03/16 01:42:25;;;;;;;15.75;3.58;;;;;;;7.61;61.97;100665.50;5006256;28;20078;-76
2021/03/16 01:45:01;;;;;;;15.82;3.58;;;;;;;7.57;62.43;100661.66;5006537;28;20065;-77
2021/03/16 01:47:36;;;;;;;13.55;3.03;;;;;;;7.59;62.70;100676.06;5005592;28;20062;-77
2021/03/16 01:50:12;;;;;;;14.52;2.65;;;;;;;7.61;62.07;100668.28;5005214;28;20062;-76
2021/03/16 01:52:42;;;;;;;14.18;3.35;;;;;;;7.62;61.10;100669.09;5005661;28;20062;-76
2021/03/16 01:55:13;;;;;;;13.90;3.10;;;;;;;7.64;61.11;100672.41;5003493;28;20054;-77
2021/03/16 01:57:46;;;;;;;15.30;3.15;;;;;;;7.62;60.94;100669.09;5003925;28;20066;-76
2021/03/16 02:00:19;;;;;;;10.77;2.50;;;;;;;7.61;60.75;100673.00;5006220;28;20054;-76
2021/03/16 02:02:49;;;;;;;11.27;2.30;;;;;;;7.58;60.88;100676.34;5005380;28;20412;-77
2021/03/16 02:05:25;;;;;;;11.35;2.80;;;;;;;7.53;60.91;100674.44;5004130;28;20050;-77
2021/03/16 02:08:05;;;;;;;12.25;2.47;;;;;;;7.54;59.81;100673.34;5002912;28;20051;-76
2021/03/16 02:10:43;;;;;;;9.27;1.95;;;;;;;7.53;59.05;100675.25;5003240;28;20059;-77
2021/03/16 02:13:19;;;;;;;12.60;2.33;;;;;;;7.51;58.62;100679.44;5002696;28;20062;-77
2021/03/16 02:15:54;;;;;;;13.80;2.17;;;;;;;7.51;58.50;100676.66;5003676;28;20059;-77
2021/03/16 02:18:42;;;;;;;11.70;2.40;;;;;;;7.49;59.05;100676.13;5002064;28;20065;-77
2021/03/16 02:21:20;;;;;;;7.60;2.13;;;;;;;7.50;59.28;100689.69;4988390;28;20489;-77
2021/03/16 02:24:02;;;;;;;12.93;2.50;;;;;;;7.53;58.73;100685.53;4999492;28;20523;-77
2021/03/16 02:26:37;;;;;;;11.13;2.20;;;;;;;7.52;59.71;100683.88;5002817;28;20435;-76
2021/03/16 02:29:14;;;;;;;15.02;3.28;;;;;;;7.54;59.87;100687.19;5004112;28;20396;-77
2021/03/16 02:31:44;;;;;;;15.75;3.40;;;;;;;7.54;60.03;100684.41;4999049;28;20062;-77
2021/03/16 02:34:16;;;;;;;11.55;2.55;;;;;;;7.52;59.72;100689.44;4998692;28;20065;-77
2021/03/16 02:36:44;;;;;;;10.57;2.67;;;;;;;7.49;60.03;100688.03;4998153;28;20054;-77
2021/03/16 02:39:12;;;;;;;15.35;2.72;;;;;;;7.48;60.45;100683.63;4998544;28;20069;-77
2021/03/16 02:41:44;;;;;;;13.32;2.88;;;;;;;7.50;60.03;100686.94;4960831;28;20059;-77
2021/03/16 02:44:12;;;;;;;14.57;2.45;;;;;;;7.52;59.46;100694.97;4959810;29;20055;-77
2021/03/16 02:46:41;;;;;;;10.63;2.45;;;;;;;7.56;59.70;100693.28;4960041;28;20055;-77
2021/03/16 02:49:09;;;;;;;11.73;2.40;;;;;;;7.59;58.77;100694.63;4959472;29;20078;-77
2021/03/16 02:51:37;;;;;;;17.83;4.43;;;;;;;7.58;59.91;100698.50;4959909;28;20406;-77
2021/03/16 02:54:06;;;;;;;10.07;2.63;;;;;;;7.55;59.49;100702.69;4960281;28;20059;-77
2021/03/16 02:56:34;;;;;;;13.00;2.70;;;;;;;7.57;59.15;100708.78;4959728;28;20070;-76
2021/03/16 02:59:04;;;;;;;11.63;2.75;;;;;;;7.59;59.50;100706.53;4960318;28;20416;-76
2021/03/16 03:01:35;;;;;;;10.95;2.70;;;;;;;7.54;59.39;100703.81;4959977;28;20059;-76
2021/03/16 03:04:04;;;;;;;8.32;2.50;;;;;;;7.54;58.67;100703.81;4960367;29;20082;-77
2021/03/16 03:06:33;;;;;;;9.45;2.65;;;;;;;7.56;59.30;100712.69;4960216;28;20511;-77
2021/03/16 03:09:02;;;;;;;14.63;2.85;;;;;;;7.57;58.72;100708.78;4959693;28;20508;-77
2021/03/16 03:11:31;;;;;;;11.65;2.10;;;;;;;7.56;58.43;100715.44;4959845;28;20430;-76
2021/03/16 03:13:58;;;;;;;7.90;2.73;;;;;;;7.60;57.71;100712.91;4958863;28;20055;-76
2021/03/16 03:16:25;;;;;;;19.10;3.55;;;;;;;7.56;58.23;100712.69;4958213;28;20471;-76
2021/03/16 03:18:53;;;;;;;10.55;2.70;;;;;;;7.57;57.57;100722.63;4959290;29;20074;-76
2021/03/16 03:21:27;;;;;;;11.93;2.17;;;;;;;7.56;58.22;100718.22;4959610;29;20063;-76
2021/03/16 03:24:00;;;;;;;11.45;2.60;;;;;;;7.57;58.01;100722.63;4958678;28;20409;-76
2021/03/16 03:26:36;;;;;;;11.65;2.35;;;;;;;7.58;58.40;100734.53;4959481;28;20497;-77
2021/03/16 03:29:04;;;;;;;8.38;2.42;;;;;;;7.60;58.34;100732.31;4939893;29;20074;-76
2021/03/16 03:31:33;;;;;;;12.23;2.30;;;;;;;7.59;58.61;100734.25;4939147;29;20063;-76
2021/03/16 03:34:03;;;;;;;10.18;2.60;;;;;;;7.61;59.20;100731.22;4937859;29;20363;-77
2021/03/16 03:36:30;;;;;;;;;;;;;;;7.57;58.60;100732.91;4938066;29;20067;-77
2021/03/16 03:38:57;;;;;;;12.60;2.22;;;;;;;7.58;59.33;100734.53;4938266;29;19926;-77
2021/03/16 03:41:27;;;;;;;12.43;2.60;;;;;;;7.55;58.94;100740.69;4985573;28;20050;-77
2021/03/16 03:43:55;;;;;;;11.75;2.05;;;;;;;7.57;58.68;100744.00;4996332;28;20050;-76
2021/03/16 03:46:23;;;;;;;10.88;2.78;;;;;;;7.58;59.16;100742.84;4996052;28;20058;-76
2021/03/16 03:48:51;;;;;;;6.45;2.17;;;;;;;7.58;58.88;100742.84;4996036;28;20448;-77
2021/03/16 03:51:20;;;;;;;13.80;2.88;;;;;;;7.59;58.66;100750.06;4996137;28;20060;-77
2021/03/16 03:53:48;;;;;;;10.80;2.03;;;;;;;7.63;58.72;100760.28;4996401;28;20070;-77
2021/03/16 03:56:18;;;;;;;10.23;2.13;;;;;;;7.62;58.49;100755.88;4997021;28;20062;-77
2021/03/16 03:58:46;;;;;;;10.50;2.10;;;;;;;7.62;57.91;100755.88;4997275;28;20539;-77
2021/03/16 04:01:15;;;;;;;9.07;1.90;;;;;;;7.65;57.86;100758.06;4997444;28;20054;-77
2021/03/16 04:03:42;;;;;;;11.95;2.50;;;;;;;7.67;57.93;100766.91;4996801;28;20058;-77
2021/03/16 04:06:09;;;;;;;16.75;2.85;;;;;;;7.66;58.59;100759.72;4995973;28;20050;-77
2021/03/16 04:08:39;;;;;;;11.50;2.33;;;;;;;7.69;58.38;100761.09;4996150;28;20066;-77
2021/03/16 04:11:06;;;;;;;11.18;2.38;;;;;;;7.70;58.00;100755.25;4996074;28;20058;-77
2021/03/16 04:13:34;;;;;;;15.98;2.90;;;;;;;7.69;58.84;100756.38;4995956;28;20062;-76
2021/03/16 04:16:01;;;;;;;13.15;2.88;;;;;;;7.68;57.94;100763.03;4996062;28;20411;-76
2021/03/16 04:18:28;;;;;;;8.55;2.60;;;;;;;7.68;58.60;100760.25;4996226;28;20062;-76
2021/03/16 04:20:55;;;;;;;19.48;2.95;;;;;;;7.65;59.36;100769.16;4996603;28;20061;-76
2021/03/16 04:23:23;;;;;;;10.65;2.28;;;;;;;7.66;59.07;100767.19;4996517;28;20415;-76
2021/03/16 04:25:51;;;;;;;14.10;3.55;;;;;;;7.70;58.77;100774.66;4995947;28;20081;-76
2021/03/16 04:28:18;;;;;;;13.52;2.72;;;;;;;7.69;59.40;100780.50;4996061;28;20054;-76
2021/03/16 04:30:45;;;;;;;11.27;2.35;;;;;;;7.73;58.62;100781.59;4996987;28;20404;-77
2021/03/16 04:33:12;;;;;;;8.95;2.60;;;;;;;7.71;59.00;100787.41;4997016;28;20397;-77
2021/03/16 04:35:39;;;;;;;7.68;2.10;;;;;;;7.73;59.73;100790.72;4996474;28;20058;-76
2021/03/16 04:38:06;;;;;;;12.70;2.90;;;;;;;7.76;58.96;100794.03;4996610;28;20085;-76
2021/03/16 04:40:33;;;;;;;9.18;2.33;;;;;;;7.78;59.57;100795.41;4996261;28;20058;-76
2021/03/16 04:43:00;;;;;;;12.88;2.30;;;;;;;7.82;58.96;100793.72;4996678;28;20054;-76
2021/03/16 04:45:27;;;;;;;11.65;2.40;;;;;;;7.82;59.02;100790.13;4996033;28;20069;-76
2021/03/16 04:47:54;;;;;;;11.73;2.33;;;;;;;7.81;59.03;100796.78;4996161;28;20481;-77
2021/03/16 04:50:21;;;;;;;17.58;2.88;;;;;;;7.80;59.40;100793.16;4996914;28;20062;-76
2021/03/16 04:52:49;;;;;;;13.55;2.50;;;;;;;7.80;59.01;100806.22;4997162;28;20058;-76
2021/03/16 04:55:16;;;;;;;14.50;3.03;;;;;;;7.81;59.82;100803.16;4996162;28;20057;-76
2021/03/16 04:57:43;;;;;;;10.48;2.00;;;;;;;7.81;60.03;100805.94;4996833;28;20058;-76
2021/03/16 05:00:12;;;;;;;15.07;3.38;;;;;;;7.83;59.66;100805.63;4996605;28;20062;-76
2021/03/16 05:02:38;;;;;;;14.25;2.60;;;;;;;7.83;59.36;100811.16;4996401;28;20058;-76
2021/03/16 05:05:07;;;;;;;9.90;2.60;;;;;;;7.81;60.32;100818.94;4995816;28;20496;-76
2021/03/16 05:07:34;;;;;;;13.48;3.03;;;;;;;7.80;60.13;100803.44;4995708;28;20499;-76
2021/03/16 05:10:01;;;;;;;12.98;2.58;;;;;;;7.71;61.16;100817.91;4995973;28;20503;-76
2021/03/16 05:12:28;;;;;;;9.88;2.40;;;;;;;7.65;60.91;100816.28;4996183;28;20065;-76
2021/03/16 05:14:55;;;;;;;13.60;3.30;;;;;;;7.66;61.09;100820.69;4996049;28;20054;-77
2021/03/16 05:17:23;;;;;;;12.38;3.28;;;;;;;7.66;61.31;100819.88;4995914;28;20062;-76
2021/03/16 05:19:50;;;;;;;11.48;3.47;;;;;;;7.65;61.48;100827.38;4995701;28;20512;-76
2021/03/16 05:22:20;;;;;;;14.40;3.08;;;;;;;7.65;61.67;100824.59;4995648;28;20054;-76
2021/03/16 05:24:47;;;;;;;7.63;2.25;;;;;;;7.64;61.81;100833.19;4995158;28;20385;-76
2021/03/16 05:27:13;;;;;;;9.02;2.58;;;;;;;7.65;62.23;100832.91;4995695;28;20066;-76
2021/03/16 05:29:42;;;;;;;11.93;2.55;;;;;;;7.62;61.67;100839.06;4996073;28;20058;-76
2021/03/16 05:32:09;;;;;;;12.02;2.60;;;;;;;7.64;62.17;100835.97;4995507;28;20054;-76
2021/03/16 05:34:37;;;;;;;10.90;2.30;;;;;;;7.62;61.72;100838.19;4996138;28;20054;-76
2021/03/16 05:37:05;;;;;;;15.30;2.75;;;;;;;7.66;63.03;100839.28;4995827;28;20065;-77
2021/03/16 05:39:32;;;;;;;13.57;2.88;;;;;;;7.67;64.83;100844.56;4994698;28;20415;-77
2021/03/16 05:41:59;;;;;;;12.57;3.08;;;;;;;7.72;62.29;100843.69;4994638;28;20054;-76
2021/03/16 05:44:27;;;;;;;15.00;2.35;;;;;;;7.72;61.68;100852.81;4995355;28;20066;-76
2021/03/16 05:46:55;;;;;;;15.35;2.63;;;;;;;7.72;60.35;100852.00;4995791;28;20062;-76
2021/03/16 05:49:23;;;;;;;13.98;2.58;;;;;;;7.72;60.62;100855.59;4994980;28;20062;-76
2021/03/16 05:51:51;;;;;;;12.70;2.53;;;;;;;7.71;60.39;100861.44;4995072;28;20062;-76
2021/03/16 05:54:18;;;;;;;10.25;3.60;;;;;;;7.69;60.65;100856.19;4994970;28;20058;-76
2021/03/16 05:56:47;;;;;;;12.32;2.85;;;;;;;7.68;60.58;100862.00;4994775;28;20054;-76
2021/03/16 05:59:15;;;;;;;8.30;2.38;;;;;;;7.67;60.08;100869.50;4998849;28;20058;-76
2021/03/16 06:01:42;;;;;;;14.00;2.30;;;;;;;7.70;60.22;100870.88;4999356;28;20435;-76
2021/03/16 06:04:09;;;;;;;9.90;2.38;;;;;;;7.69;58.77;100872.81;4998868;28;20070;-77
2021/03/16 06:06:36;;;;;;;9.40;1.67;;;;;;;7.69;58.77;100872.00;4996189;28;20062;-76
2021/03/16 06:09:06;;;;;;;8.27;2.05;;;;;;;7.70;59.06;100879.19;4990168;28;20058;-76
2021/03/16 06:11:34;;;;;;;7.28;1.83;;;;;;;7.71;59.12;100883.63;4987614;28;20058;-76
2021/03/16 06:14:01;;;;;;;9.30;2.13;;;;;;;7.73;58.94;100881.41;4996674;28;20064;-76
2021/03/16 06:16:28;;;;;;;8.70;2.35;;;;;;;7.72;59.09;100888.88;4997364;28;20085;-76
2021/03/16 06:18:55;;;;;;;9.30;1.85;;;;;;;7.75;58.49;100889.41;4998584;28;20054;-76
2021/03/16 06:21:24;;;;;;;8.15;1.95;;;;;;;7.75;58.66;100879.19;4998111;28;20058;-76
2021/03/16 06:23:53;;;;;;;15.77;3.38;;;;;;;7.72;58.47;100883.31;4998120;28;20057;-76
2021/03/16 06:26:24;;;;;;;7.85;1.88;;;;;;;7.75;59.09;100883.88;4997583;28;20069;-76
2021/03/16 06:28:51;;;;;;;8.90;2.78;;;;;;;7.76;59.10;100880.81;4997273;28;20058;-76
2021/03/16 06:31:22;;;;;;;8.02;2.20;;;;;;;7.81;59.01;100891.91;4998831;28;20070;-76
2021/03/16 06:33:50;;;;;;;13.00;2.55;;;;;;;7.85;58.59;100887.44;4999035;28;20054;-77
2021/03/16 06:36:17;;;;;;;13.32;2.47;;;;;;;7.88;58.42;100884.09;4998194;28;20388;-77
2021/03/16 06:38:44;;;;;;;9.75;1.98;;;;;;;7.93;58.88;100894.31;4999342;28;20061;-77
2021/03/16 06:41:12;;;;;;;12.52;2.70;;;;;;;7.93;59.32;100894.31;4996817;28;20054;-77
2021/03/16 06:43:41;;;;;;;9.88;2.30;;;;;;;7.95;58.93;100889.31;4997824;28;20057;-77
2021/03/16 06:46:09;;;;;;;9.53;2.27;;;;;;;8.00;58.77;100894.84;4994667;28;20066;-76
2021/03/16 06:48:38;;;;;;;11.38;2.55;;;;;;;8.02;59.22;100903.72;4995605;28;20069;-77
2021/03/16 06:51:13;;;;;;;9.98;2.47;;;;;;;8.07;58.86;100895.34;4997671;28;20058;-76
2021/03/16 06:53:40;;;;;;;9.25;3.00;;;;;;;8.13;58.51;100898.94;4997139;28;20058;-77
2021/03/16 06:56:08;;;;;;;9.15;2.22;;;;;;;8.19;58.07;100897.78;4997438;28;20050;-77
2021/03/16 06:58:36;;;;;;;11.88;2.95;;;;;;;8.26;57.67;100895.50;4999270;28;20054;-79
2021/03/16 07:01:06;;;;;;;12.20;2.30;;;;;;;8.29;57.90;100902.41;5001172;28;20074;-77
2021/03/16 07:03:32;;;;;;;;;;;;;;;8.26;57.95;100905.78;4998274;28;20062;-77
2021/03/16 07:06:10;;;;;;;12.73;2.65;;;;;;;8.32;57.74;100904.63;4995794;28;19944;-77
2021/03/16 07:08:37;;;;;;;12.20;2.70;;;;;;;8.33;57.20;100903.50;4997561;28;20058;-77
2021/03/16 07:11:06;;;;;;;9.98;2.65;;;;;;;8.31;57.76;100905.72;4995669;28;20061;-77
2021/03/16 07:13:33;;;;;;;10.90;2.60;;;;;;;8.42;57.65;100912.06;4997556;28;20058;-77
2021/03/16 07:16:01;;;;;;;9.93;2.45;;;;;;;8.46;57.22;100916.75;4997624;28;20058;-77
2021/03/16 07:18:32;;;;;;;7.75;2.90;;;;;;;8.47;57.05;100921.19;4997294;28;20400;-76
2021/03/16 07:21:07;;;;;;;10.80;2.65;;;;;;;8.53;58.10;100920.03;4997579;28;20063;-77
2021/03/16 07:23:44;;;;;;;9.57;2.30;;;;;;;8.55;57.04;100916.97;4996543;28;20054;-77
2021/03/16 07:26:11;;;;;;;13.50;2.20;;;;;;;8.58;57.19;100921.09;4977934;28;20055;-77
2021/03/16 07:28:39;;;;;;;13.05;3.00;;;;;;;8.60;57.20;100927.19;4988930;28;20062;-77
2021/03/16 07:31:06;;;;;;;11.02;2.50;;;;;;;8.59;56.63;100931.06;4992695;28;20073;-77
2021/03/16 07:33:34;;;;;;;6.93;2.08;;;;;;;8.64;56.57;100918.00;4988764;28;20423;-76
2021/03/16 07:36:00;;;;;;;8.25;2.28;;;;;;;8.67;56.72;100927.69;4991641;28;20062;-76
2021/03/16 07:38:27;;;;;;;9.73;2.33;;;;;;;8.80;56.12;100926.19;4991426;28;20061;-77
2021/03/16 07:40:55;;;;;;;10.15;2.47;;;;;;;8.90;56.93;100921.38;4992392;28;20058;-77
2021/03/16 07:43:31;;;;;;;10.15;2.33;;;;;;;9.13;56.52;100918.94;4992718;28;20061;-77
2021/03/16 07:46:08;;;;;;;9.60;2.22;;;;;;;9.35;56.02;100927.59;4990071;28;20069;-76
2021/03/16 07:48:42;;;;;;;10.52;2.70;;;;;;;9.48;55.27;100926.03;4993813;28;20061;-76
2021/03/16 07:51:11;;;;;;;13.98;2.97;;;;;;;9.68;54.46;100919.44;4990463;28;20431;-75
2021/03/16 07:53:40;;;;;;;8.82;2.90;;;;;;;9.85;53.99;100920.84;4993452;28;20058;-76
2021/03/16 07:56:09;;;;;;;10.00;3.13;;;;;;;10.03;53.32;100927.59;4997928;28;20057;-76
2021/03/16 07:58:44;;;;;;;10.77;2.42;;;;;;;10.10;52.70;100923.31;4992025;28;20073;-77
2021/03/16 08:01:11;;;;;;;12.65;2.38;;;;;;;10.13;52.44;100933.00;4992610;28;20057;-77
2021/03/16 08:03:41;;;;;;;7.72;2.35;;;;;;;10.16;51.91;100926.81;4992113;28;20412;-76
2021/03/16 08:06:08;;;;;;;6.20;1.85;;;;;;;10.11;52.02;100926.91;5001086;28;20097;-76
2021/03/16 08:08:40;;;;;;;6.88;1.75;;;;;;;10.19;51.11;100937.38;4990891;28;20062;-76
2021/03/16 08:11:08;;;;;;;9.20;2.60;;;;;;;10.32;50.19;100933.03;5005319;28;20400;-74
2021/03/16 08:13:35;;;;;;;6.60;1.85;;;;;;;10.46;48.28;100933.94;4996604;28;20418;-74
2021/03/16 08:16:10;;;;;;;5.97;1.52;;;;;;;10.67;47.92;100937.22;5000802;28;20058;-75
2021/03/16 08:18:41;;;;;;;7.88;2.00;;;;;;;10.99;46.48;100940.31;4990115;28;20066;-76
2021/03/16 08:21:09;;;;;;;6.55;2.15;;;;;;;11.30;46.35;100937.81;4992549;28;20508;-76
2021/03/16 08:23:37;;;;;;;6.28;1.80;;;;;;;11.63;45.34;100940.50;4990738;28;20531;-76
2021/03/16 08:26:05;;;;;;;7.22;1.95;;;;;;;12.21;44.44;100939.84;5008356;28;20050;-77
2021/03/16 08:28:32;;;;;;;7.68;2.25;;;;;;;12.76;42.68;100939.63;4991873;28;20062;-77
2021/03/16 08:30:59;;;;;;;4.35;1.60;;;;;;;13.84;40.79;100942.38;4979444;28;20444;-77
2021/03/16 08:33:27;;;;;;;7.22;1.85;;;;;;;13.90;39.35;100943.03;4992868;28;20061;-77
2021/03/16 08:35:56;;;;;;;7.68;2.13;;;;;;;15.96;35.73;100940.63;4992037;28;20057;-77
2021/03/16 08:38:25;;;;;;;6.90;2.35;;;;;;;19.14;30.64;100924.47;4992877;28;20054;-76
2021/03/16 08:41:04;;;;;;;6.90;2.20;;;;;;;21.65;25.97;100929.25;4991186;28;20515;-77
2021/03/16 08:43:31;;;;;;;4.97;1.90;;;;;;;22.18;25.37;100929.28;4993501;28;20065;-78
2021/03/16 08:45:58;;;;;;;5.80;1.92;;;;;;;21.86;25.55;100928.78;4998135;28;20054;-78
2021/03/16 08:48:26;;;;;;;5.53;1.73;;;;;;;20.32;26.72;100942.75;4995494;28;20057;-77
2021/03/16 08:50:53;;;;;;;7.10;1.85;;;;;;;19.18;28.03;100933.03;4993208;28;20053;-77
2021/03/16 08:53:21;;;;;;;6.22;1.70;;;;;;;18.22;29.10;100946.75;4991906;28;20055;-77
2021/03/16 08:55:49;;;;;;;7.47;1.88;;;;;;;17.23;30.71;100937.41;4995440;28;20050;-77
2021/03/16 08:58:18;;;;;;;3.80;1.38;;;;;;;16.29;32.70;100932.28;4992676;28;20065;-77
2021/03/16 09:00:45;;;;;;;6.05;1.90;;;;;;;15.48;34.36;100933.41;4996968;28;20061;-77
2021/03/16 09:03:13;;;;;;;5.03;1.73;;;;;;;14.74;36.31;100932.56;4991687;28;20062;-76
2021/03/16 09:05:40;;;;;;;9.80;2.45;;;;;;;14.13;36.97;100936.19;4993213;28;20058;-77
2021/03/16 09:08:09;;;;;;;7.80;2.40;;;;;;;13.79;37.91;100948.09;4992178;28;20062;-77
2021/03/16 09:10:36;;;;;;;7.22;1.80;;;;;;;13.28;38.47;100950.34;4994005;28;20116;-78
2021/03/16 09:13:03;;;;;;;5.22;1.80;;;;;;;12.98;39.36;100952.78;4996984;28;20055;-77
2021/03/16 09:15:33;;;;;;;6.00;1.70;;;;;;;12.81;40.15;100955.47;4993746;28;20468;-77
2021/03/16 09:18:03;;;;;;;8.80;2.13;;;;;;;12.64;40.38;100945.00;4993286;28;20420;-77
2021/03/16 09:20:31;;;;;;;7.65;2.00;;;;;;;12.63;40.50;100950.91;4990332;28;20515;-75
2021/03/16 09:23:00;;;;;;;6.22;1.48;;;;;;;12.66;40.84;100953.91;4993087;28;20396;-75
2021/03/16 09:25:29;;;;;;;5.65;1.67;;;;;;;12.62;41.15;100955.66;4992342;28;20070;-76
2021/03/16 09:28:00;;;;;;;5.05;1.60;;;;;;;12.46;40.81;100955.19;4992204;28;20063;-75
2021/03/16 09:30:29;;;;;;;6.60;1.85;;;;;;;12.68;40.60;100956.34;4993254;28;20384;-75
2021/03/16 09:32:57;;;;;;;5.18;2.10;;;;;;;13.45;39.40;100948.81;4993456;28;20065;-76
2021/03/16 09:35:25;;;;;;;6.03;1.70;;;;;;;13.62;39.26;100953.66;4996319;28;20419;-76
2021/03/16 09:37:53;;;;;;;7.53;1.70;;;;;;;13.62;38.13;100954.47;4997689;28;20412;-77
2021/03/16 09:40:30;;;;;;;5.22;1.70;;;;;;;13.63;38.91;100960.88;4995999;28;20472;-75
2021/03/16 09:42:59;;;;;;;7.55;2.05;;;;;;;13.53;39.36;100956.41;4996334;28;20184;-77
2021/03/16 09:45:28;;;;;;;5.55;1.60;;;;;;;13.52;39.04;100954.75;4995284;28;20078;-76
2021/03/16 09:47:56;;;;;;;5.53;2.13;;;;;;;13.50;39.35;100949.50;4995316;28;20054;-77
2021/03/16 09:50:29;;;;;;;5.45;1.50;;;;;;;13.79;38.93;100953.69;4996615;28;20803;-77
2021/03/16 09:53:01;;;;;;;7.25;2.50;;;;;;;14.67;37.29;100952.72;4995474;28;20054;-77
2021/03/16 09:55:28;;;;;;;6.47;1.70;;;;;;;14.94;36.63;100947.91;4995894;28;20058;-77
2021/03/16 09:57:56;;;;;;;4.50;1.20;;;;;;;15.16;35.63;100944.06;4996248;28;20055;-77
2021/03/16 10:00:26;;;;;;;5.45;1.38;;;;;;;15.18;35.07;100936.97;4995172;28;20051;-76
2021/03/16 10:03:02;;;;;;;5.65;1.92;;;;;;;17.01;32.59;100944.28;4995615;28;20430;-76
2021/03/16 10:05:29;;;;;;;4.82;1.55;;;;;;;16.74;33.03;100942.84;5006771;28;20058;-77
2021/03/16 10:07:56;;;;;;;4.85;1.63;;;;;;;16.39;33.61;100933.88;4999786;28;20050;-77
2021/03/16 10:10:24;;;;;;;6.13;1.77;;;;;;;16.48;33.13;100943.06;4996278;28;20102;-76
2021/03/16 10:12:57;;;;;;;5.68;2.05;;;;;;;17.69;31.06;100939.38;4996159;28;20069;-77
2021/03/16 10:15:27;;;;;;;7.00;1.55;;;;;;;18.14;30.39;100939.25;5002735;28;20068;-76
2021/03/16 10:17:57;;;;;;;4.45;1.45;;;;;;;17.49;30.84;100938.28;4998953;28;20518;-76
2021/03/16 10:20:30;;;;;;;4.85;1.55;;;;;;;17.88;29.84;100933.19;5000719;28;20070;-76
2021/03/16 10:23:00;;;;;;;4.72;1.52;;;;;;;18.86;27.80;100927.31;4995057;28;20050;-76
2021/03/16 10:25:29;;;;;;;6.18;1.50;;;;;;;19.58;26.73;100926.41;4995109;28;20058;-77
2021/03/16 10:28:01;;;;;;;2.72;1.38;;;;;;;20.73;25.99;100920.63;4994218;28;20069;-77
2021/03/16 10:30:42;;;;;;;5.40;1.70;;;;;;;20.65;26.03;100925.31;4997116;28;20050;-75
2021/03/16 10:33:13;;;;;;;3.90;1.25;;;;;;;19.57;27.11;100930.41;4994424;28;20058;-77
2021/03/16 10:35:42;;;;;;;5.38;1.73;;;;;;;19.70;27.02;100922.66;4996253;28;20058;-77
2021/03/16 10:38:09;;;;;;;3.58;1.35;;;;;;;19.81;25.78;100918.94;4996417;28;20399;-76
2021/03/16 10:40:37;;;;;;;2.70;1.00;;;;;;;18.90;27.15;100925.44;4994347;28;20066;-76
2021/03/16 10:43:07;;;;;;;3.90;1.30;;;;;;;17.98;28.68;100924.25;4993753;28;20054;-77
2021/03/16 10:45:34;;;;;;;2.75;1.17;;;;;;;17.31;29.88;100924.41;4992991;28;20500;-77
2021/03/16 10:48:01;;;;;;;3.38;1.30;;;;;;;17.30;30.76;100925.56;4996107;28;20170;-75
2021/03/16 10:50:28;;;;;;;3.45;1.20;;;;;;;16.66;31.39;100921.25;4994230;28;20057;-74
2021/03/16 10:52:55;;;;;;;9.60;1.75;;;;;;;16.43;31.16;100918.78;4995306;28;20046;-75
2021/03/16 10:55:22;;;;;;;7.40;2.00;;;;;;;17.81;29.59;100919.66;4992729;28;20054;-74
2021/03/16 10:57:49;;;;;;;5.40;1.52;;;;;;;16.99;30.94;100923.28;4996043;28;20055;-76
2021/03/16 11:00:17;;;;;;;4.57;1.42;;;;;;;16.24;32.05;100924.88;4994313;28;20058;-76
2021/03/16 11:02:45;;;;;;;4.50;1.60;;;;;;;15.64;33.82;100920.44;4996508;28;20073;-75
2021/03/16 11:05:14;;;;;;;4.07;1.33;;;;;;;15.09;34.92;100927.75;4994691;28;20065;-75
2021/03/16 11:07:40;;;;;;;4.72;1.63;;;;;;;14.64;36.79;100933.75;4993236;28;20073;-77
2021/03/16 11:10:08;;;;;;;6.05;1.80;;;;;;;14.15;38.33;100936.69;4995929;28;20121;-75
2021/03/16 11:12:35;;;;;;;7.57;2.53;;;;;;;13.70;39.60;100942.47;4995005;28;20530;-75
2021/03/16 11:15:02;;;;;;;8.80;2.05;;;;;;;13.55;40.07;100942.94;4995951;28;20063;-76
2021/03/16 11:17:29;;;;;;;5.53;2.08;;;;;;;13.42;40.59;100949.44;4995985;28;20050;-75
2021/03/16 11:19:56;;;;;;;8.93;2.00;;;;;;;13.22;41.44;100943.22;5002934;28;20054;-76
2021/03/16 11:22:24;;;;;;;5.53;1.90;;;;;;;12.85;43.22;100948.13;5016386;28;20065;-76
2021/03/16 11:24:51;;;;;;;6.70;1.85;;;;;;;12.63;43.97;100950.91;5002339;28;20070;-76
2021/03/16 11:27:18;;;;;;;6.57;2.15;;;;;;;12.38;44.59;100944.75;4997122;28;20045;-77
2021/03/16 11:29:44;;;;;;;7.10;2.08;;;;;;;12.21;47.01;100950.19;4997175;28;20065;-76
2021/03/16 11:32:11;;;;;;;6.43;2.35;;;;;;;12.03;46.94;100949.19;4989419;28;20054;-76
2021/03/16 11:34:38;;;;;;;8.02;2.10;;;;;;;11.88;48.13;100967.06;4992780;28;20062;-76
2021/03/16 11:37:05;;;;;;;5.45;1.77;;;;;;;11.79;49.71;100956.63;4991886;28;20399;-73